Time;durP1;ratioP1;P1;durP2;ratioP2;P2;SDS_P1;SDS_P2;PMS_P1;PMS_P2;Temp;Humidity;BMP_temperature;BMP_pressure;BME280_temperature;BME280_humidity;BME280_pressure;Samples;Min_cycle;Max_cycle;Signal;HPM_P1;HPM_P2
2023/03/13 00:01:23;;;;;;;14.40;3.87;;;9.30;99.90;;;;;;5076896;28;20190;-81
2023/03/13 00:03:48;;;;;;;11.40;2.47;;;9.30;99.90;;;;;;5077524;28;20187;-80
2023/03/13 00:06:14;;;;;;;18.53;3.27;;;9.30;99.90;;;;;;5077991;28;20184;-81
2023/03/13 00:08:40;;;;;;;14.10;3.33;;;9.30;99.90;;;;;;5077212;28;20193;-80
2023/03/13 00:11:09;;;;;;;12.80;2.90;;;9.30;99.90;;;;;;5059270;28;20190;-81
2023/03/13 00:13:35;;;;;;;13.17;3.30;;;9.30;99.90;;;;;;5077725;28;20539;-80
2023/03/13 00:16:06;;;;;;;11.53;2.97;;;9.30;99.90;;;;;;5077530;28;20266;-81
2023/03/13 00:18:32;;;;;;;16.37;3.00;;;9.30;99.90;;;;;;5077705;28;20213;-81
2023/03/13 00:20:59;;;;;;;15.30;3.07;;;9.30;99.90;;;;;;5078105;28;20187;-81
2023/03/13 00:23:24;;;;;;;13.23;3.53;;;9.30;99.90;;;;;;5059945;28;20194;-81
2023/03/13 00:26:01;;;;;;;14.23;3.50;;;9.30;99.90;;;;;;5078223;28;20216;-81
2023/03/13 00:28:28;;;;;;;13.90;3.23;;;9.30;99.90;;;;;;5077856;28;20288;-83
2023/03/13 00:31:12;;;;;;;14.20;3.00;;;9.30;99.90;;;;;;5060326;28;20195;-82
2023/03/13 00:33:40;;;;;;;11.20;2.70;;;9.30;99.90;;;;;;5061578;28;20174;-82
2023/03/13 00:36:08;;;;;;;12.93;3.30;;;9.40;99.90;;;;;;5090278;28;20167;-85
2023/03/13 00:38:34;;;;;;;17.67;3.73;;;9.30;99.90;;;;;;5080439;28;20167;-85
2023/03/13 00:41:13;;;;;;;16.53;3.43;;;9.30;99.90;;;;;;5097226;28;20209;-82
2023/03/13 00:43:40;;;;;;;12.47;3.17;;;9.30;99.90;;;;;;5089065;28;20183;-82
2023/03/13 00:46:07;;;;;;;9.97;2.63;;;9.30;99.90;;;;;;5087568;28;20174;-81
2023/03/13 00:48:33;;;;;;;13.07;3.20;;;9.30;99.90;;;;;;5063338;28;20183;-81
2023/03/13 00:50:59;;;;;;;14.53;3.37;;;9.30;99.90;;;;;;5061115;28;20197;-82
2023/03/13 00:53:24;;;;;;;20.50;3.90;;;9.30;99.90;;;;;;5061258;28;20262;-80
2023/03/13 00:56:03;;;;;;;13.87;3.20;;;9.30;99.90;;;;;;5061540;28;20214;-81
2023/03/13 00:58:31;;;;;;;14.23;3.10;;;9.30;99.90;;;;;;5061139;28;20254;-82
2023/03/13 01:01:09;;;;;;;13.07;3.20;;;9.30;99.90;;;;;;5060946;28;20751;-81
2023/03/13 01:03:36;;;;;;;12.40;3.23;;;9.30;99.90;;;;;;5078683;28;20281;-81
2023/03/13 01:06:04;;;;;;;11.20;3.27;;;9.30;99.90;;;;;;5060575;28;20171;-82
2023/03/13 01:08:30;;;;;;;16.50;3.40;;;9.30;99.90;;;;;;5060677;28;20178;-81
2023/03/13 01:11:05;;;;;;;18.27;2.80;;;9.30;99.90;;;;;;5059521;28;20289;-81
2023/03/13 01:13:32;;;;;;;15.50;3.50;;;9.30;99.90;;;;;;5077622;28;20174;-81
2023/03/13 01:16:08;;;;;;;13.70;3.20;;;9.30;99.90;;;;;;5059741;28;20182;-81
2023/03/13 01:18:35;;;;;;;15.57;3.00;;;9.30;99.90;;;;;;5077686;28;20247;-81
2023/03/13 01:21:01;;;;;;;17.17;3.00;;;9.30;99.90;;;;;;5077770;28;20201;-82
2023/03/13 01:23:27;;;;;;;13.03;3.60;;;9.30;99.90;;;;;;5059801;28;20206;-81
2023/03/13 01:25:54;;;;;;;13.57;3.03;;;9.30;99.90;;;;;;5059024;28;20237;-81
2023/03/13 01:28:20;;;;;;;20.13;2.97;;;9.30;99.90;;;;;;5077858;28;20630;-82
2023/03/13 01:30:46;;;;;;;19.57;3.67;;;9.30;99.90;;;;;;5081657;28;20381;-81
2023/03/13 01:33:11;;;;;;;18.70;3.47;;;9.30;99.90;;;;;;5063181;28;20186;-80
2023/03/13 01:35:37;;;;;;;11.47;2.53;;;9.30;99.90;;;;;;5081532;28;20190;-82
2023/03/13 01:38:02;;;;;;;16.07;3.23;;;9.30;99.90;;;;;;5082503;28;20183;-81
2023/03/13 01:40:28;;;;;;;15.50;3.07;;;9.30;99.90;;;;;;5063936;28;20243;-82
2023/03/13 01:42:56;;;;;;;14.67;3.00;;;9.30;99.90;;;;;;5083061;28;20258;-82
2023/03/13 01:46:04;;;;;;;13.80;2.63;;;9.30;99.90;;;;;;5063213;28;20257;-82
2023/03/13 01:48:51;;;;;;;11.70;2.90;;;9.30;99.90;;;;;;5071599;28;20193;-82
2023/03/13 01:51:18;;;;;;;10.90;3.23;;;9.30;99.90;;;;;;5062763;28;20207;-82
2023/03/13 01:53:48;;;;;;;15.67;2.80;;;9.30;99.90;;;;;;5081047;28;20174;-82
2023/03/13 01:56:24;;;;;;;15.17;2.87;;;9.30;99.90;;;;;;5062954;28;20232;-81
2023/03/13 01:58:51;;;;;;;13.90;2.97;;;9.40;99.90;;;;;;5081683;28;20167;-82
2023/03/13 02:01:18;;;;;;;14.17;3.07;;;9.40;99.90;;;;;;5080414;28;20615;-82
2023/03/13 02:03:44;;;;;;;15.63;3.43;;;9.40;99.90;;;;;;5080728;28;20209;-81
2023/03/13 02:06:11;;;;;;;7.87;2.43;;;9.30;99.90;;;;;;5063391;28;20544;-82
2023/03/13 02:09:00;;;;;;;12.53;3.07;;;9.30;99.90;;;;;;5081227;28;20174;-82
2023/03/13 02:11:47;;;;;;;14.90;2.90;;;9.30;99.90;;;;;;5063141;28;20241;-82
2023/03/13 02:14:14;;;;;;;12.37;2.47;;;9.30;99.90;;;;;;5082211;28;20171;-81
2023/03/13 02:16:40;;;;;;;17.37;3.40;;;9.30;99.90;;;;;;5080724;28;20170;-82
2023/03/13 02:19:18;;;;;;;17.07;2.90;;;9.30;99.90;;;;;;5063878;28;20179;-81
2023/03/13 02:22:19;;;;;;;11.43;2.57;;;9.30;99.90;;;;;;5063677;28;20580;-81
2023/03/13 02:24:53;;;;;;;11.87;2.87;;;9.30;99.90;;;;;;5080673;28;20226;-81
2023/03/13 02:27:19;;;;;;;8.67;2.50;;;9.40;99.90;;;;;;5062736;28;20240;-81
2023/03/13 02:29:45;;;;;;;16.97;3.27;;;9.30;99.90;;;;;;5061691;28;20187;-81
2023/03/13 02:32:11;;;;;;;12.90;2.90;;;9.40;99.90;;;;;;5061483;28;20202;-81
2023/03/13 02:34:39;;;;;;;13.47;2.87;;;9.40;99.90;;;;;;5080506;28;20255;-81
2023/03/13 02:37:09;;;;;;;12.80;3.00;;;9.40;99.90;;;;;;5062866;28;20185;-81
2023/03/13 02:39:37;;;;;;;15.83;3.30;;;9.40;99.90;;;;;;5080033;28;20177;-81
2023/03/13 02:42:04;;;;;;;12.83;2.33;;;9.40;99.90;;;;;;5079601;28;20194;-82
2023/03/13 02:44:30;;;;;;;10.27;2.50;;;9.50;99.90;;;;;;5062431;28;20214;-81
2023/03/13 02:46:55;;;;;;;23.43;2.93;;;9.50;99.90;;;;;;5062674;28;20175;-81
2023/03/13 02:49:27;;;;;;;12.47;2.73;;;9.50;99.90;;;;;;5081284;28;20171;-82
2023/03/13 02:51:56;;;;;;;14.57;2.73;;;9.50;99.90;;;;;;5063969;28;20201;-82
2023/03/13 02:54:25;;;;;;;10.10;2.40;;;9.50;99.90;;;;;;5063676;28;20267;-81
2023/03/13 02:56:55;;;;;;;7.73;2.40;;;9.60;99.90;;;;;;5064941;28;20175;-81
2023/03/13 02:59:20;;;;;;;9.17;2.70;;;9.60;99.90;;;;;;5084197;28;20171;-81
2023/03/13 03:01:46;;;;;;;7.10;1.73;;;9.60;99.90;;;;;;5091886;28;20207;-81
2023/03/13 03:04:11;;;;;;;11.13;2.37;;;9.70;99.90;;;;;;5088106;28;20214;-82
2023/03/13 03:06:37;;;;;;;9.77;2.63;;;9.70;99.90;;;;;;5062310;28;20171;-82
2023/03/13 03:09:03;;;;;;;9.10;1.60;;;9.70;99.90;;;;;;5062842;28;20178;-81
2023/03/13 03:11:29;;;;;;;6.47;2.20;;;9.70;99.90;;;;;;5080927;28;20709;-84
2023/03/13 03:13:54;;;;;;;12.57;2.37;;;9.70;99.90;;;;;;5064066;28;20681;-81
2023/03/13 03:16:20;;;;;;;11.73;2.00;;;9.80;99.90;;;;;;5081712;28;20601;-82
2023/03/13 03:18:45;;;;;;;10.43;1.87;;;9.80;99.90;;;;;;5062287;28;20198;-82
2023/03/13 03:21:12;;;;;;;12.93;2.07;;;9.80;99.90;;;;;;5061417;28;20573;-82
2023/03/13 03:23:37;;;;;;;6.30;1.97;;;9.80;99.90;;;;;;5061243;28;20253;-82
2023/03/13 03:26:04;;;;;;;12.00;1.83;;;9.80;99.90;;;;;;5061632;28;20187;-82
2023/03/13 03:28:30;;;;;;;7.23;1.73;;;9.80;99.90;;;;;;5079328;28;20638;-81
2023/03/13 03:30:55;;;;;;;8.30;1.60;;;9.80;99.90;;;;;;5061455;28;20199;-82
2023/03/13 03:33:22;;;;;;;8.63;1.80;;;9.90;99.90;;;;;;5061247;28;20182;-81
2023/03/13 03:35:48;;;;;;;9.27;1.93;;;9.90;99.90;;;;;;5079591;28;20187;-81
2023/03/13 03:38:14;;;;;;;5.53;1.33;;;9.90;99.90;;;;;;5061119;28;20189;-83
2023/03/13 03:40:39;;;;;;;4.53;1.40;;;9.90;99.90;;;;;;5079327;28;20211;-81
2023/03/13 03:43:05;;;;;;;6.43;1.20;;;10.00;99.90;;;;;;5079605;28;20507;-81
2023/03/13 03:45:31;;;;;;;7.83;2.07;;;10.00;99.90;;;;;;5079584;28;20175;-82
2023/03/13 03:47:58;;;;;;;8.50;1.67;;;10.00;99.90;;;;;;5059734;28;20645;-82
2023/03/13 03:50:27;;;;;;;2.87;1.03;;;10.00;99.90;;;;;;5078576;28;20163;-82
2023/03/13 03:52:52;;;;;;;5.13;1.10;;;10.10;99.90;;;;;;5078434;28;20190;-81
2023/03/13 03:55:19;;;;;;;4.90;1.23;;;10.10;99.90;;;;;;5060988;28;20258;-82
2023/03/13 03:57:45;;;;;;;4.03;1.40;;;10.10;99.90;;;;;;5060972;28;20183;-81
2023/03/13 04:00:13;;;;;;;4.73;1.27;;;10.10;99.90;;;;;;5060702;28;20229;-82
2023/03/13 04:02:38;;;;;;;4.57;1.40;;;10.20;99.90;;;;;;5060644;28;20191;-81
2023/03/13 04:05:04;;;;;;;3.47;1.10;;;10.20;99.90;;;;;;5060595;28;20198;-82
2023/03/13 04:07:30;;;;;;;2.70;1.03;;;10.20;99.90;;;;;;5060866;28;20179;-82
2023/03/13 04:09:55;;;;;;;3.97;1.10;;;10.20;99.90;;;;;;5060186;28;20183;-82
2023/03/13 04:12:21;;;;;;;1.63;1.10;;;10.30;99.90;;;;;;5060425;28;20194;-81
2023/03/13 04:14:46;;;;;;;2.50;1.20;;;10.30;99.90;;;;;;5060172;28;20333;-82
2023/03/13 04:17:12;;;;;;;2.73;1.00;;;10.40;99.90;;;;;;5077904;28;20194;-81
2023/03/13 04:19:37;;;;;;;2.77;1.00;;;10.40;99.90;;;;;;5059375;28;20175;-83
2023/03/13 04:22:03;;;;;;;2.07;1.07;;;10.40;99.90;;;;;;5078077;28;20210;-81
2023/03/13 04:24:28;;;;;;;1.73;1.10;;;10.50;99.90;;;;;;5077768;28;20286;-82
2023/03/13 04:26:54;;;;;;;2.20;0.70;;;10.50;99.90;;;;;;5077835;28;20186;-82
2023/03/13 04:29:20;;;;;;;2.10;0.80;;;10.50;99.90;;;;;;5077777;28;20230;-82
2023/03/13 04:31:45;;;;;;;1.60;1.00;;;10.50;99.90;;;;;;5078928;28;20194;-82
2023/03/13 04:34:11;;;;;;;2.80;0.93;;;10.50;99.90;;;;;;5060350;28;20534;-82
2023/03/13 04:36:36;;;;;;;2.60;0.97;;;10.50;99.90;;;;;;5060505;28;20183;-82
2023/03/13 04:39:02;;;;;;;3.63;0.90;;;10.50;99.90;;;;;;5059768;28;20254;-81
2023/03/13 04:41:27;;;;;;;4.63;1.50;;;10.60;99.90;;;;;;5076854;28;20729;-82
2023/03/13 04:43:53;;;;;;;1.50;1.00;;;10.70;99.90;;;;;;5077508;28;20312;-81
2023/03/13 04:46:18;;;;;;;1.20;1.00;;;10.70;99.90;;;;;;5059042;28;20174;-81
2023/03/13 04:48:45;;;;;;;2.03;1.20;;;10.80;99.90;;;;;;5059059;28;20203;-81
2023/03/13 04:51:11;;;;;;;1.70;0.83;;;10.80;99.90;;;;;;5077259;28;20191;-82
2023/03/13 04:53:36;;;;;;;1.53;1.30;;;11.00;99.90;;;;;;5076939;28;20177;-81
2023/03/13 04:56:02;;;;;;;1.97;1.30;;;11.10;99.90;;;;;;5058794;28;20194;-81
2023/03/13 04:58:28;;;;;;;3.57;1.57;;;11.00;99.90;;;;;;5076557;28;20179;-82
2023/03/13 05:00:53;;;;;;;1.23;1.00;;;11.10;99.90;;;;;;5076859;28;20626;-81
2023/03/13 05:03:19;;;;;;;1.13;1.00;;;11.10;99.90;;;;;;5076408;28;20260;-81
2023/03/13 05:05:45;;;;;;;2.47;1.40;;;11.30;99.90;;;;;;5076729;28;20282;-81
2023/03/13 05:08:10;;;;;;;3.93;1.67;;;11.40;99.90;;;;;;5059220;28;20278;-81
2023/03/13 05:10:36;;;;;;;2.07;1.33;;;11.40;99.90;;;;;;5059442;28;20174;-82
2023/03/13 05:13:01;;;;;;;3.27;1.50;;;11.50;99.90;;;;;;5076821;28;20301;-83
2023/03/13 05:15:27;;;;;;;3.07;1.90;;;11.50;99.90;;;;;;5058906;28;20171;-83
2023/03/13 05:17:52;;;;;;;2.63;1.97;;;11.70;99.90;;;;;;5077545;28;20194;-82
2023/03/13 05:20:18;;;;;;;4.37;2.50;;;11.80;99.90;;;;;;5059590;28;20262;-82
2023/03/13 05:22:44;;;;;;;4.57;2.00;;;11.90;99.90;;;;;;5076962;28;20273;-83
2023/03/13 05:25:09;;;;;;;3.30;1.90;;;12.00;99.90;;;;;;5059514;28;20585;-82
2023/03/13 05:27:35;;;;;;;4.03;1.70;;;12.00;99.90;;;;;;5059840;28;20198;-81
2023/03/13 05:30:00;;;;;;;1.83;1.50;;;11.90;99.90;;;;;;5063420;28;20199;-80
2023/03/13 05:32:26;;;;;;;2.53;1.70;;;11.80;99.90;;;;;;5060865;28;20202;-81
2023/03/13 05:34:51;;;;;;;2.80;1.80;;;11.90;99.90;;;;;;5065064;28;20216;-82
2023/03/13 05:37:17;;;;;;;2.73;1.47;;;11.90;99.90;;;;;;5066608;28;20182;-83
2023/03/13 05:39:42;;;;;;;1.70;1.37;;;11.90;99.90;;;;;;5068495;28;20198;-82
2023/03/13 05:42:08;;;;;;;2.17;1.93;;;11.90;99.90;;;;;;5064850;28;20203;-82
2023/03/13 05:44:33;;;;;;;1.33;1.23;;;11.80;99.90;;;;;;5064576;28;20210;-83
2023/03/13 05:46:59;;;;;;;3.10;1.73;;;11.80;99.90;;;;;;5083436;28;20179;-81
2023/03/13 05:49:24;;;;;;;2.10;1.30;;;11.80;99.90;;;;;;5066772;28;20690;-82
2023/03/13 05:51:50;;;;;;;2.73;1.70;;;11.80;99.90;;;;;;5084740;28;20206;-82
2023/03/13 05:54:16;;;;;;;3.03;1.77;;;11.80;99.90;;;;;;5084926;28;20167;-82
2023/03/13 05:56:41;;;;;;;5.50;1.87;;;11.80;99.90;;;;;;5066911;28;20182;-82
2023/03/13 05:59:07;;;;;;;2.80;1.93;;;11.80;99.90;;;;;;5067429;28;20189;-82
2023/03/13 06:01:32;;;;;;;4.23;1.70;;;11.80;99.90;;;;;;5064971;28;20281;-82
2023/03/13 06:03:58;;;;;;;2.87;1.90;;;11.80;99.90;;;;;;5063778;28;20290;-81
2023/03/13 06:06:23;;;;;;;2.63;1.50;;;11.80;99.90;;;;;;5063604;28;20235;-82
2023/03/13 06:08:51;;;;;;;3.37;2.10;;;11.70;99.90;;;;;;5065518;28;20254;-82
2023/03/13 06:11:17;;;;;;;2.03;1.40;;;11.80;99.90;;;;;;5080651;28;20218;-82
2023/03/13 06:13:42;;;;;;;2.73;1.43;;;11.90;99.90;;;;;;5080595;28;20190;-82
2023/03/13 06:16:08;;;;;;;3.17;1.33;;;11.90;99.90;;;;;;5085250;28;20554;-81
2023/03/13 06:18:33;;;;;;;1.87;1.27;;;11.90;99.90;;;;;;5069137;28;20195;-82
2023/03/13 06:21:00;;;;;;;3.00;1.37;;;11.90;99.90;;;;;;5087104;28;20682;-82
2023/03/13 06:23:26;;;;;;;3.10;1.30;;;11.90;99.90;;;;;;5086029;28;20205;-82
2023/03/13 06:25:52;;;;;;;2.53;1.33;;;12.20;99.90;;;;;;5087016;28;20175;-82
2023/03/13 06:28:17;;;;;;;2.77;1.53;;;12.00;99.90;;;;;;5086853;28;20182;-82
2023/03/13 06:30:43;;;;;;;3.33;1.70;;;12.00;99.90;;;;;;5069574;28;20557;-82
2023/03/13 06:33:09;;;;;;;1.73;1.30;;;12.10;99.90;;;;;;5069549;28;20171;-82
2023/03/13 06:35:34;;;;;;;2.30;1.30;;;12.10;99.90;;;;;;5087099;28;20224;-83
2023/03/13 06:38:00;;;;;;;1.97;1.23;;;12.00;99.90;;;;;;5067348;28;20266;-82
2023/03/13 06:40:25;;;;;;;2.90;1.10;;;12.10;99.90;;;;;;5086322;28;20171;-82
2023/03/13 06:42:51;;;;;;;2.70;1.30;;;12.10;99.90;;;;;;5084966;28;20187;-82
2023/03/13 06:45:16;;;;;;;2.40;1.33;;;12.10;99.90;;;;;;5067128;28;20207;-82
2023/03/13 06:47:42;;;;;;;7.07;1.63;;;12.20;99.90;;;;;;5088132;28;20183;-82
2023/03/13 06:50:08;;;;;;;3.07;1.40;;;12.20;99.90;;;;;;5069539;28;20621;-82
2023/03/13 06:52:34;;;;;;;1.87;1.20;;;12.20;99.90;;;;;;5086753;28;20274;-82
2023/03/13 06:54:59;;;;;;;2.40;1.27;;;12.20;99.90;;;;;;5068871;28;20186;-82
2023/03/13 06:57:25;;;;;;;2.73;1.50;;;12.20;99.90;;;;;;5067816;28;20182;-82
2023/03/13 06:59:51;;;;;;;2.63;1.50;;;12.30;99.90;;;;;;5066982;28;20696;-82
2023/03/13 07:02:16;;;;;;;1.40;0.93;;;12.40;99.90;;;;;;5066665;28;20216;-82
2023/03/13 07:04:42;;;;;;;2.53;1.20;;;12.40;99.90;;;;;;5066119;28;20195;-83
2023/03/13 07:07:08;;;;;;;3.07;1.47;;;12.50;99.90;;;;;;5062302;28;20500;-83
2023/03/13 07:09:33;;;;;;;2.93;1.50;;;12.50;99.90;;;;;;5066093;28;20175;-82
2023/03/13 07:11:59;;;;;;;3.00;1.40;;;12.50;99.90;;;;;;5067570;28;20194;-82
2023/03/13 07:14:25;;;;;;;2.90;1.47;;;12.60;99.90;;;;;;5085531;28;20704;-83
2023/03/13 07:16:50;;;;;;;1.73;1.40;;;12.60;99.90;;;;;;5066070;28;20192;-82
2023/03/13 07:19:16;;;;;;;2.80;1.47;;;12.70;99.90;;;;;;5087752;28;20162;-82
2023/03/13 07:21:42;;;;;;;4.13;1.83;;;12.70;99.90;;;;;;5070473;28;20336;-82
2023/03/13 07:24:08;;;;;;;3.20;1.60;;;12.70;99.90;;;;;;5088938;28;20191;-82
2023/03/13 07:26:34;;;;;;;4.03;1.70;;;12.80;99.90;;;;;;5088655;28;20238;-82
2023/03/13 07:28:59;;;;;;;5.60;1.60;;;12.70;99.90;;;;;;5087055;28;20190;-82
2023/03/13 07:31:25;;;;;;;3.13;1.57;;;12.70;99.90;;;;;;5068672;28;20290;-82
2023/03/13 07:33:55;;;;;;;4.73;1.60;;;12.70;99.90;;;;;;5068791;28;20174;-81
2023/03/13 07:36:21;;;;;;;4.13;1.63;;;12.70;99.90;;;;;;5086866;28;20175;-83
2023/03/13 07:38:47;;;;;;;4.20;1.67;;;12.70;99.90;;;;;;5067938;28;20246;-81
2023/03/13 07:41:13;;;;;;;5.60;1.50;;;12.80;99.90;;;;;;5086702;28;20199;-82
2023/03/13 07:43:39;;;;;;;3.00;1.63;;;12.80;99.90;;;;;;5086669;28;20214;-84
2023/03/13 07:46:07;;;;;;;5.53;1.63;;;12.80;99.90;;;;;;5086159;28;20182;-82
2023/03/13 07:48:37;;;;;;;5.47;1.97;;;12.80;99.90;;;;;;5101946;28;20174;-82
2023/03/13 07:51:05;;;;;;;2.27;1.47;;;12.80;99.90;;;;;;5086746;28;20566;-82
2023/03/13 07:53:31;;;;;;;4.40;2.10;;;12.80;99.90;;;;;;5068732;28;20190;-82
2023/03/13 07:55:58;;;;;;;5.67;1.67;;;12.80;99.90;;;;;;5085856;28;20175;-82
2023/03/13 07:58:27;;;;;;;4.43;1.70;;;12.80;99.90;;;;;;5067846;28;20540;-82
2023/03/13 08:00:53;;;;;;;1.83;1.40;;;12.80;99.90;;;;;;5086297;28;20261;-82
2023/03/13 08:03:19;;;;;;;2.27;1.60;;;12.80;99.90;;;;;;5085853;28;20202;-82
2023/03/13 08:05:45;;;;;;;3.10;1.80;;;12.80;99.90;;;;;;5067500;28;20209;-82
2023/03/13 08:08:10;;;;;;;3.27;1.50;;;12.80;99.90;;;;;;5068154;28;20171;-82
2023/03/13 08:10:36;;;;;;;4.10;1.70;;;12.90;99.90;;;;;;5067405;28;20183;-82
2023/03/13 08:13:02;;;;;;;3.90;1.57;;;12.90;99.90;;;;;;5067002;28;20626;-82
2023/03/13 08:15:28;;;;;;;3.53;1.87;;;12.90;99.90;;;;;;5066777;28;20182;-82
2023/03/13 08:17:54;;;;;;;6.97;1.97;;;12.90;99.90;;;;;;5066191;28;20332;-82
2023/03/13 08:20:20;;;;;;;3.93;1.63;;;13.00;99.90;;;;;;5085619;28;20250;-82
2023/03/13 08:22:46;;;;;;;3.40;1.43;;;13.00;99.90;;;;;;5084695;28;20185;-83
2023/03/13 08:25:13;;;;;;;5.43;2.00;;;13.00;99.90;;;;;;5066465;28;20210;-82
2023/03/13 08:27:39;;;;;;;3.97;1.87;;;13.20;99.90;;;;;;5065765;28;20179;-82
2023/03/13 08:30:05;;;;;;;4.33;2.43;;;13.30;99.90;;;;;;5084817;28;20223;-82
2023/03/13 08:32:36;;;;;;;5.40;2.00;;;13.30;99.90;;;;;;5066665;28;20273;-82
2023/03/13 08:35:03;;;;;;;5.00;1.70;;;13.30;99.90;;;;;;5067096;28;20197;-81
2023/03/13 08:37:28;;;;;;;7.10;2.30;;;13.40;99.90;;;;;;5084743;28;20175;-83
2023/03/13 08:39:55;;;;;;;5.70;1.77;;;13.40;99.90;;;;;;5066381;28;20179;-82
2023/03/13 08:42:22;;;;;;;8.40;1.90;;;13.40;99.90;;;;;;5066660;28;20226;-82
2023/03/13 08:44:48;;;;;;;4.70;1.63;;;13.50;99.90;;;;;;5066030;28;20199;-82
2023/03/13 08:47:14;;;;;;;7.33;2.17;;;13.60;99.90;;;;;;5083983;28;20232;-82
2023/03/13 08:49:39;;;;;;;6.63;2.00;;;13.70;99.90;;;;;;5085209;28;20262;-83
2023/03/13 08:52:05;;;;;;;6.03;1.87;;;13.60;99.90;;;;;;5066703;28;20191;-83
2023/03/13 08:54:31;;;;;;;5.30;1.90;;;13.70;99.90;;;;;;5083520;28;20190;-82
2023/03/13 08:56:58;;;;;;;5.83;2.10;;;13.70;99.90;;;;;;5066405;28;20197;-82
2023/03/13 08:59:24;;;;;;;3.53;1.60;;;13.70;99.90;;;;;;5065756;28;20175;-82
2023/03/13 09:01:50;;;;;;;5.90;1.50;;;13.70;99.90;;;;;;5084866;28;20205;-82
2023/03/13 09:04:15;;;;;;;5.40;2.37;;;13.70;99.90;;;;;;5078047;28;20199;-82
2023/03/13 09:06:41;;;;;;;5.90;1.80;;;13.80;99.90;;;;;;5096992;28;20251;-82
2023/03/13 09:09:07;;;;;;;5.83;2.03;;;13.90;99.90;;;;;;5078795;28;20211;-82
2023/03/13 09:11:35;;;;;;;2.67;1.70;;;13.90;99.90;;;;;;5078441;28;20194;-82
2023/03/13 09:14:00;;;;;;;4.43;1.63;;;13.90;99.90;;;;;;5078662;28;20247;-82
2023/03/13 09:16:29;;;;;;;8.63;2.20;;;13.80;99.90;;;;;;5070291;28;20185;-82
2023/03/13 09:18:55;;;;;;;3.10;1.60;;;13.90;99.90;;;;;;5069857;28;20194;-81
2023/03/13 09:21:23;;;;;;;5.37;1.90;;;13.90;99.90;;;;;;5068383;28;20195;-82
2023/03/13 09:23:49;;;;;;;9.50;2.30;;;13.80;99.90;;;;;;5068170;28;20199;-82
2023/03/13 09:26:16;;;;;;;6.67;2.17;;;13.90;99.90;;;;;;5067428;28;20180;-82
2023/03/13 09:28:43;;;;;;;3.80;1.70;;;13.80;99.90;;;;;;5085814;28;20262;-82
2023/03/13 09:31:10;;;;;;;5.67;1.87;;;13.80;99.90;;;;;;5086195;28;20195;-82
2023/03/13 09:33:36;;;;;;;4.43;1.60;;;13.70;99.90;;;;;;5084904;28;20550;-82
2023/03/13 09:36:02;;;;;;;5.77;1.83;;;13.70;99.90;;;;;;5067461;28;20178;-82
2023/03/13 09:38:28;;;;;;;3.90;1.90;;;13.70;99.90;;;;;;5084737;28;20205;-82
2023/03/13 09:40:54;;;;;;;6.60;1.90;;;13.60;99.90;;;;;;5067016;28;20700;-83
2023/03/13 09:43:43;;;;;;;4.87;1.90;;;13.60;99.90;;;;;;5085281;28;20179;-82
2023/03/13 09:46:16;;;;;;;8.33;2.30;;;13.60;99.90;;;;;;5066619;28;20578;-82
2023/03/13 09:48:47;;;;;;;5.00;2.17;;;13.60;99.90;;;;;;5083881;28;20159;-82
2023/03/13 09:51:28;;;;;;;4.07;2.23;;;13.60;99.90;;;;;;5087854;28;20206;-82
2023/03/13 09:54:20;;;;;;;7.00;2.03;;;13.60;99.90;;;;;;5070160;28;20175;-81
2023/03/13 09:57:14;;;;;;;10.27;2.13;;;13.60;99.90;;;;;;5086767;28;20164;-82
2023/03/13 09:59:42;;;;;;;7.27;2.23;;;13.50;99.90;;;;;;5069417;28;20221;-82
2023/03/13 10:02:29;;;;;;;4.80;1.60;;;13.50;99.90;;;;;;5087379;28;20191;-82
2023/03/13 10:05:21;;;;;;;4.57;2.20;;;13.50;99.90;;;;;;5086596;28;20186;-82
2023/03/13 10:07:46;;;;;;;5.77;2.37;;;13.70;99.90;;;;;;5067898;28;20167;-82
2023/03/13 10:10:16;;;;;;;4.67;1.73;;;13.80;99.90;;;;;;5086240;28;20218;-82
2023/03/13 10:12:48;;;;;;;2.97;2.00;;;13.90;99.90;;;;;;5067933;28;20252;-82
2023/03/13 10:15:28;;;;;;;6.60;2.10;;;14.00;99.90;;;;;;5067260;28;20183;-82
2023/03/13 10:17:54;;;;;;;6.13;2.10;;;14.10;99.90;;;;;;5067880;28;20190;-82
2023/03/13 10:20:32;;;;;;;4.30;1.87;;;14.20;99.90;;;;;;5067418;28;20528;-82
2023/03/13 10:23:20;;;;;;;8.23;2.10;;;14.30;99.90;;;;;;5085949;28;20166;-82
2023/03/13 10:25:45;;;;;;;5.80;2.27;;;14.30;99.90;;;;;;5068145;28;20177;-82
2023/03/13 10:28:14;;;;;;;3.93;1.60;;;14.40;99.90;;;;;;5068082;28;20275;-82
2023/03/13 10:30:51;;;;;;;4.87;1.43;;;14.40;99.90;;;;;;5086190;28;20175;-83
2023/03/13 10:33:28;;;;;;;5.87;2.03;;;14.50;99.90;;;;;;5068291;28;20163;-82
2023/03/13 10:36:05;;;;;;;3.33;1.50;;;14.70;99.90;;;;;;5068432;28;20254;-82
2023/03/13 10:38:34;;;;;;;6.40;1.57;;;14.80;99.90;;;;;;5067417;28;20264;-82
2023/03/13 10:41:06;;;;;;;2.17;1.40;;;14.90;99.90;;;;;;5067516;28;20216;-83
2023/03/13 10:43:31;;;;;;;3.87;1.67;;;14.90;99.90;;;;;;5085493;28;20283;-82
2023/03/13 10:45:57;;;;;;;4.07;1.37;;;15.00;99.90;;;;;;5067566;28;20179;-82
2023/03/13 10:48:28;;;;;;;6.00;1.47;;;15.00;99.90;;;;;;5067446;28;20253;-82
2023/03/13 10:50:58;;;;;;;2.70;1.53;;;15.10;99.90;;;;;;5067201;28;20226;-82
2023/03/13 10:53:29;;;;;;;2.10;1.30;;;15.20;99.90;;;;;;5085475;28;20729;-82
2023/03/13 10:55:57;;;;;;;3.97;1.13;;;15.30;99.90;;;;;;5067648;28;20167;-83
2023/03/13 10:58:48;;;;;;;3.50;1.30;;;15.40;99.90;;;;;;5066864;28;20246;-82
2023/03/13 11:01:33;;;;;;;4.97;1.37;;;15.50;99.90;;;;;;5067047;28;20281;-82
2023/03/13 11:04:17;;;;;;;4.07;1.33;;;15.60;99.90;;;;;;5067267;28;20224;-82
2023/03/13 11:06:53;;;;;;;2.10;0.90;;;15.60;99.90;;;;;;5068306;28;20175;-83
2023/03/13 11:09:19;;;;;;;1.70;1.10;;;15.60;99.90;;;;;;5067132;28;20170;-82
2023/03/13 11:11:51;;;;;;;1.90;0.93;;;15.80;99.90;;;;;;5086086;28;20556;-82
2023/03/13 11:14:22;;;;;;;2.93;1.20;;;15.70;99.90;;;;;;5086106;28;20181;-83
2023/03/13 11:16:49;;;;;;;2.80;1.00;;;15.80;99.90;;;;;;5068157;28;20182;-82
2023/03/13 11:19:28;;;;;;;2.73;1.10;;;15.80;99.90;;;;;;5086954;28;20599;-82
2023/03/13 11:22:16;;;;;;;2.60;0.90;;;15.90;99.90;;;;;;5067762;28;20202;-82
2023/03/13 11:25:13;;;;;;;0.97;0.83;;;15.90;37.80;;;;;;5086854;28;20194;-82
2023/03/13 11:28:08;;;;;;;1.17;0.90;;;15.90;76.50;;;;;;5102713;28;20199;-82
2023/03/13 11:31:01;;;;;;;0.83;0.80;;;15.90;99.90;;;;;;5072139;28;20202;-82
2023/03/13 11:33:59;;;;;;;2.47;1.30;;;15.90;99.90;;;;;;5091503;28;20218;-82
2023/03/13 11:36:30;;;;;;;1.77;1.07;;;15.90;87.10;;;;;;5048887;28;20218;-82
2023/03/13 11:39:01;;;;;;;0.77;0.63;;;16.20;1.00;;;;;;5083939;28;20171;-82
2023/03/13 11:41:42;;;;;;;0.60;0.50;;;16.30;1.00;;;;;;5083857;28;20673;-82
2023/03/13 11:44:21;;;;;;;0.80;0.60;;;16.30;1.00;;;;;;5065344;28;20194;-83
2023/03/13 11:47:07;;;;;;;1.13;0.83;;;16.30;99.90;;;;;;5084084;28;20159;-81
2023/03/13 11:49:47;;;;;;;0.67;0.60;;;16.50;99.90;;;;;;5064633;28;20163;-83
2023/03/13 11:52:19;;;;;;;2.03;0.70;;;16.60;99.90;;;;;;5064806;28;20199;-83
2023/03/13 11:55:21;;;;;;;1.00;0.70;;;16.70;99.90;;;;;;5064661;28;20179;-83
2023/03/13 11:58:04;;;;;;;1.40;0.60;;;16.80;99.90;;;;;;5082933;28;20159;-82
2023/03/13 12:00:41;;;;;;;4.17;0.57;;;16.80;99.90;;;;;;5082321;28;20163;-83
2023/03/13 12:03:19;;;;;;;1.27;0.60;;;16.90;83.50;;;;;;5083342;28;20159;-82
2023/03/13 12:05:52;;;;;;;1.60;0.67;;;16.80;99.90;;;;;;5082881;28;20190;-82
2023/03/13 12:08:35;;;;;;;0.60;0.60;;;16.80;58.50;;;;;;5066108;28;20591;-82
2023/03/13 12:11:26;;;;;;;1.30;0.60;;;16.80;99.90;;;;;;5065163;28;20199;-82
2023/03/13 12:14:05;;;;;;;1.10;0.70;;;16.70;99.90;;;;;;5054921;28;20638;-81
2023/03/13 12:16:49;;;;;;;2.83;0.80;;;16.70;79.50;;;;;;5064378;28;20177;-82
2023/03/13 12:19:28;;;;;;;0.80;0.50;;;16.60;99.90;;;;;;5081910;28;20182;-82
2023/03/13 12:22:00;;;;;;;1.53;0.60;;;16.60;99.90;;;;;;5083284;28;20250;-83
2023/03/13 12:24:34;;;;;;;0.77;0.67;;;16.50;99.90;;;;;;5064031;28;20278;-83
2023/03/13 12:27:12;;;;;;;2.53;0.77;;;16.60;1.00;;;;;;5082666;28;20155;-83
2023/03/13 12:29:54;;;;;;;1.77;0.60;;;16.70;99.90;;;;;;5064657;28;20172;-83
2023/03/13 12:32:40;;;;;;;0.70;0.57;;;16.70;99.90;;;;;;5082677;28;20187;-83
2023/03/13 12:35:11;;;;;;;2.27;0.60;;;16.70;99.90;;;;;;5064040;28;20183;-82
2023/03/13 12:37:51;;;;;;;0.50;0.40;;;16.70;99.90;;;;;;5082966;28;20171;-82
2023/03/13 12:40:27;;;;;;;1.70;0.70;;;16.70;99.90;;;;;;5083427;28;20650;-83
2023/03/13 12:43:18;;;;;;;0.97;0.70;;;16.60;99.90;;;;;;5083754;28;20274;-83
2023/03/13 12:45:55;;;;;;;1.43;0.70;;;16.60;99.90;;;;;;5065450;28;20193;-82
2023/03/13 12:49:02;;;;;;;1.13;0.60;;;16.60;1.00;;;;;;5066168;28;20224;-83
2023/03/13 12:51:52;;;;;;;0.40;0.40;;;16.60;99.90;;;;;;5099138;28;20643;-82
2023/03/13 12:54:26;;;;;;;1.30;0.67;;;16.70;99.90;;;;;;5084419;28;20156;-82
2023/03/13 12:57:18;;;;;;;1.10;0.43;;;16.60;99.90;;;;;;5067606;28;20158;-82
2023/03/13 12:59:53;;;;;;;0.87;0.70;;;16.70;26.60;;;;;;5067813;28;20521;-82
2023/03/13 13:02:26;;;;;;;1.10;0.47;;;16.70;99.90;;;;;;5065705;28;20190;-82